AirNav   Everest Fuels
 
 699 users online  

5OL5 Willsee Airport
Lexington, Oklahoma, USA

GOING TO LEXINGTON?


FAA INFORMATION EFFECTIVE 16 JUNE 2022

Location

FAA Identifier: 5OL5
Lat/Long: 35-00-08.0000N 097-11-25.0000W
35-00.133333N 097-11.416667W
35.0022222,-97.1902778
(estimated)
Elevation: 1128 ft. / 344 m (estimated)
From city: 7 miles E of LEXINGTON, OK
Time zone: UTC -5 (UTC -6 during Standard Time)
Zip code: 73051

Airport Operations

Airport use: Private use. Permission required prior to landing
Activation date: 05/2019
Control tower: no
ARTCC: FORT WORTH CENTER
FSS: MC ALESTER FLIGHT SERVICE STATION
Attendance: 
Segmented circle: no

Airport Communications

WX AWOS-3 at PVJ (18 nm S): 118.675 (405-238-4452)

Airport Services

Runway Information

Runway 1/19

Dimensions: 1022 x 50 ft. / 312 x 15 m
Surface: turf, in good condition
RUNWAY 1  RUNWAY 19
Traffic pattern: leftleft

Airport Ownership and Management from official FAA records

Ownership: Privately-owned
Owner: WILLIAM C GRAS
PO BOX 1001
LEXINGTON, OK 73051
Phone 405-527-0231
Manager: WILLIAM C GRAS
PO BOX 1001
LEXINGTON, OK 73051
Phone 405-527-0231

Airport Operational Statistics

Aircraft based on the field: 4
Single engine airplanes: 2
Ultralights: 2
    

Instrument Procedures

There are no published instrument procedures at 5OL5.

Some nearby airports with instrument procedures:

KHMY - Muldrow Army Heliport (2 nm NW)
1K4 - David Jay Perry Airport (17 nm NW)
KPVJ - Pauls Valley Municipal Airport (18 nm S)
KOUN - University of Oklahoma Westheimer Airport (20 nm NW)
KSNL - Shawnee Regional Airport (25 nm NE)
 
Loc | Ops | Rwys | IFR | FBO | Links
Com | Nav | Svcs | Stats | Notes
Aerial photo
No photo
 
Airport distance calculator
Flying to Willsee Airport? Find the distance to fly.

From to 5OL5

Sunrise and sunset
Times for 25-Jun-2022
 Local
(UTC-5)
 Zulu
(UTC)
Morning civil twilight05:4710:47
Sunrise06:1711:17
Sunset20:4601:46
Evening civil twilight21:1502:15

Current date and time
Zulu (UTC)  25-Jun-2022 11:18:57
Local (UTC-5)  25-Jun-2022 06:18:57
 
METAR
KPVJ 
17nm S 
251055Z AUTO 17003KT 10SM CLR 24/19 A2991 RMK AO2 T02350192
KOUN 
18nm NW 
251055Z AUTO 17008KT 10SM CLR 25/18 A2990 RMK AO2 T02460180
TAF
KOUN 
18nm NW 
250520Z 2506/2606 15011KT P6SM SKC FM250700 16009KT P6SM SKC WS020/19045KT FM251300 18011KT P6SM SKC FM251700 20012G19KT P6SM FEW080 FEW250
NOTAMs
Click for the latest NOTAMs
NOTAMs are issued by the DoD/FAA and will open in a separate window not controlled by AirNav.

 

 
 

Would you like to see your business listed on this page?

 If your business provides an interesting product or service to pilots, flight crews, aircraft, or users of the Willsee Airport, you should consider listing it here.  To start the listing process, click on the button below
 
Add a business
 

Other Pages about Willsee Airport

Update a link
 
Copyright © AirNav, LLC. All rights reserved. Privacy Policy  Contact